Cookies

¿Aceptas nuestras cookies?

Aceptar
VAM | Vabird-VBD

Virtual Vabird! Aerolínea Virtual de habla hispana, desde 2011




 INFORMACIÓN METAR y TAF
METAR FOR LEZL
ADDS - METARS form results

(0114 UTC 27 September 2021)
Data provider http://aviationweather.gov/metar/data/
 
METAR text: LEZL 270100Z AUTO 17006KT CAVOK 18/15 Q1020
Conditions at: LEZL (SEVILLA (CIV/MIL, ES) observed 0100 UTC 27 September 2021
Temperature: 18.0°C (64°F)
Dewpoint: 15.0°C (59°F) [RH = 83%]
Pressure (altimeter): 30.12 inches Hg (1020.0 mb)
Winds: from the S (170 degrees) at 7 MPH (6 knots; 3.1 m/s)
Visibility: 6 or more miles (10+ km)
Ceiling: ceiling and visibility are OK
Clouds: unknown
Weather: no significant weather observed at this time

METAR text: LEZL 270030Z AUTO 17006KT CAVOK 19/15 Q1020
Conditions at: LEZL (SEVILLA (CIV/MIL, ES) observed 0030 UTC 27 September 2021
Temperature: 19.0°C (66°F)
Dewpoint: 15.0°C (59°F) [RH = 78%]
Pressure (altimeter): 30.12 inches Hg (1020.0 mb)
Winds: from the S (170 degrees) at 7 MPH (6 knots; 3.1 m/s)
Visibility: 6 or more miles (10+ km)
Ceiling: ceiling and visibility are OK
Clouds: unknown
Weather: no significant weather observed at this time

Forecast for: LEZL (SEVILLA (CIV/MIL, ES)
Text: TAF LEZL 262000Z 2621/2721 25010KT CAVOK TX30/2716Z TN15/2706Z
Forecast period: 2100 UTC 26 September 2021 to 0200 UTC 27 September 2021
Forecast type: FROM: standard forecast or significant change
Winds: from the WSW (250 degrees) at 12 MPH (10 knots; 5.1 m/s)
Visibility: 6 or more miles (10+ km)
Ceiling: unknown
Clouds: missing
Weather: no significant weather forecast for this period
Text: PROB30
Forecast period: 0200 to 0800 UTC 27 September 2021
Forecast type: TEMPORARY: The following changes expected for less than half the time period
Visibility: 2.49 miles (4.01 km)
Ceiling: unknown
Clouds: missing
Weather: BR  (mist)
Text: TEMPO 2702/2708 4000 BR
Forecast period: 0200 to 2100 UTC 27 September 2021
Forecast type: BECOMING: Conditions expected to become as follows by 0400 UTC 27 September 2021
Winds: variable direction winds at 2 MPH (2 knots; 1.0 m/s)
Visibility: 6 or more miles (10+ km)
Ceiling: unknown
Clouds: missing
Weather: no significant weather forecast for this period

 MAPA DE AEROPUERTO

 INFORMACIÓN DE PISTA